sensor_id;sensor_type;location;lat;lon;timestamp;P1;P2;P0
50956;PMS5003;55361;50.876;20.634;2022-07-23T00:00:03;41;33;23
50956;PMS5003;55361;50.876;20.634;2022-07-23T00:07:14;43;32;22
50956;PMS5003;55361;50.876;20.634;2022-07-23T00:14:07;43;32;22
50956;PMS5003;55361;50.876;20.634;2022-07-23T00:21:06;43;32;22
50956;PMS5003;55361;50.876;20.634;2022-07-23T00:28:06;43;32;22
50956;PMS5003;55361;50.876;20.634;2022-07-23T00:35:02;37;32;21
50956;PMS5003;55361;50.876;20.634;2022-07-23T00:42:17;37;32;21
50956;PMS5003;55361;50.876;20.634;2022-07-23T00:49:20;37;32;21
50956;PMS5003;55361;50.876;20.634;2022-07-23T00:56:03;37;32;21
50956;PMS5003;55361;50.876;20.634;2022-07-23T01:00:03;37;32;21
50956;PMS5003;55361;50.876;20.634;2022-07-23T01:07:21;40;33;23
50956;PMS5003;55361;50.876;20.634;2022-07-23T01:14:19;40;33;23
50956;PMS5003;55361;50.876;20.634;2022-07-23T01:21:03;40;33;23
50956;PMS5003;55361;50.876;20.634;2022-07-23T01:28:03;40;33;23
50956;PMS5003;55361;50.876;20.634;2022-07-23T01:35:22;46;37;25
50956;PMS5003;55361;50.876;20.634;2022-07-23T01:42:15;46;37;25
50956;PMS5003;55361;50.876;20.634;2022-07-23T01:49:20;46;37;25
50956;PMS5003;55361;50.876;20.634;2022-07-23T01:56:19;46;37;25
50956;PMS5003;55361;50.876;20.634;2022-07-23T02:00:19;46;37;25
50956;PMS5003;55361;50.876;20.634;2022-07-23T02:07:20;39;34;22
50956;PMS5003;55361;50.876;20.634;2022-07-23T02:14:05;39;34;22
50956;PMS5003;55361;50.876;20.634;2022-07-23T02:21:16;39;34;22
50956;PMS5003;55361;50.876;20.634;2022-07-23T02:28:17;39;34;22
50956;PMS5003;55361;50.876;20.634;2022-07-23T02:35:06;41;35;24
50956;PMS5003;55361;50.876;20.634;2022-07-23T02:42:15;41;35;24
50956;PMS5003;55361;50.876;20.634;2022-07-23T02:49:05;41;35;24
50956;PMS5003;55361;50.876;20.634;2022-07-23T02:56:16;41;35;24
50956;PMS5003;55361;50.876;20.634;2022-07-23T03:00:13;41;35;24
50956;PMS5003;55361;50.876;20.634;2022-07-23T03:07:17;44;36;24
50956;PMS5003;55361;50.876;20.634;2022-07-23T03:14:18;44;36;24
50956;PMS5003;55361;50.876;20.634;2022-07-23T03:21:19;44;36;24
50956;PMS5003;55361;50.876;20.634;2022-07-23T03:28:04;44;36;24
50956;PMS5003;55361;50.876;20.634;2022-07-23T03:35:03;46;38;26
50956;PMS5003;55361;50.876;20.634;2022-07-23T03:42:19;46;38;26
50956;PMS5003;55361;50.876;20.634;2022-07-23T03:49:18;46;38;26
50956;PMS5003;55361;50.876;20.634;2022-07-23T03:56:07;46;38;26
50956;PMS5003;55361;50.876;20.634;2022-07-23T04:00:24;46;38;26
50956;PMS5003;55361;50.876;20.634;2022-07-23T04:07:04;43;33;23
50956;PMS5003;55361;50.876;20.634;2022-07-23T04:14:17;43;33;23
50956;PMS5003;55361;50.876;20.634;2022-07-23T04:21:04;43;33;23
50956;PMS5003;55361;50.876;20.634;2022-07-23T04:28:04;43;33;23
50956;PMS5003;55361;50.876;20.634;2022-07-23T04:35:08;40;32;22
50956;PMS5003;55361;50.876;20.634;2022-07-23T04:42:03;40;32;22
50956;PMS5003;55361;50.876;20.634;2022-07-23T04:49:02;40;32;22
50956;PMS5003;55361;50.876;20.634;2022-07-23T04:56:16;40;32;22
50956;PMS5003;55361;50.876;20.634;2022-07-23T05:00:03;40;32;22
50956;PMS5003;55361;50.876;20.634;2022-07-23T05:07:17;45;36;24
50956;PMS5003;55361;50.876;20.634;2022-07-23T05:14:14;45;36;24
50956;PMS5003;55361;50.876;20.634;2022-07-23T05:21:15;45;36;24
50956;PMS5003;55361;50.876;20.634;2022-07-23T05:28:16;45;36;24
50956;PMS5003;55361;50.876;20.634;2022-07-23T05:35:14;34;32;21
50956;PMS5003;55361;50.876;20.634;2022-07-23T05:42:03;34;32;21
50956;PMS5003;55361;50.876;20.634;2022-07-23T05:49:02;34;32;21
50956;PMS5003;55361;50.876;20.634;2022-07-23T05:56:20;34;32;21
50956;PMS5003;55361;50.876;20.634;2022-07-23T06:00:11;34;32;21
50956;PMS5003;55361;50.876;20.634;2022-07-23T06:07:05;22;21;14
50956;PMS5003;55361;50.876;20.634;2022-07-23T06:14:06;22;21;14
50956;PMS5003;55361;50.876;20.634;2022-07-23T06:21:16;22;21;14
50956;PMS5003;55361;50.876;20.634;2022-07-23T06:28:02;22;21;14
50956;PMS5003;55361;50.876;20.634;2022-07-23T06:42:04;30;28;19
50956;PMS5003;55361;50.876;20.634;2022-07-23T06:49:20;30;28;19
50956;PMS5003;55361;50.876;20.634;2022-07-23T06:56:14;30;28;19
50956;PMS5003;55361;50.876;20.634;2022-07-23T07:00:14;30;28;19
50956;PMS5003;55361;50.876;20.634;2022-07-23T07:07:15;23;23;17
50956;PMS5003;55361;50.876;20.634;2022-07-23T07:14:06;23;23;17
50956;PMS5003;55361;50.876;20.634;2022-07-23T07:21:13;23;23;17
50956;PMS5003;55361;50.876;20.634;2022-07-23T07:28:03;23;23;17
50956;PMS5003;55361;50.876;20.634;2022-07-23T07:35:02;19;18;15
50956;PMS5003;55361;50.876;20.634;2022-07-23T07:42:03;19;18;15
50956;PMS5003;55361;50.876;20.634;2022-07-23T07:49:02;19;18;15
50956;PMS5003;55361;50.876;20.634;2022-07-23T07:56:19;19;18;15
50956;PMS5003;55361;50.876;20.634;2022-07-23T08:00:10;19;18;15
50956;PMS5003;55361;50.876;20.634;2022-07-23T08:14:16;16;16;13
50956;PMS5003;55361;50.876;20.634;2022-07-23T08:21:17;16;16;13
50956;PMS5003;55361;50.876;20.634;2022-07-23T08:28:24;16;16;13
50956;PMS5003;55361;50.876;20.634;2022-07-23T08:42:06;20;20;14
50956;PMS5003;55361;50.876;20.634;2022-07-23T08:49:21;20;20;14
50956;PMS5003;55361;50.876;20.634;2022-07-23T08:56:03;20;20;14
50956;PMS5003;55361;50.876;20.634;2022-07-23T09:00:07;20;20;14
50956;PMS5003;55361;50.876;20.634;2022-07-23T09:14:02;21;19;13
50956;PMS5003;55361;50.876;20.634;2022-07-23T09:21:06;21;19;13
50956;PMS5003;55361;50.876;20.634;2022-07-23T09:28:12;21;19;13
50956;PMS5003;55361;50.876;20.634;2022-07-23T09:42:22;17;16;12
50956;PMS5003;55361;50.876;20.634;2022-07-23T09:49:09;17;16;12
50956;PMS5003;55361;50.876;20.634;2022-07-23T09:56:20;17;16;12
50956;PMS5003;55361;50.876;20.634;2022-07-23T10:00:25;17;16;12
50956;PMS5003;55361;50.876;20.634;2022-07-23T10:14:20;17;16;13
50956;PMS5003;55361;50.876;20.634;2022-07-23T10:21:45;17;16;13
50956;PMS5003;55361;50.876;20.634;2022-07-23T10:35:31;17;16;13
50956;PMS5003;55361;50.876;20.634;2022-07-23T10:42:17;20;18;14
50956;PMS5003;55361;50.876;20.634;2022-07-23T10:49:45;20;18;14
50956;PMS5003;55361;50.876;20.634;2022-07-23T10:56:16;20;18;14
50956;PMS5003;55361;50.876;20.634;2022-07-23T11:00:31;20;18;14
50956;PMS5003;55361;50.876;20.634;2022-07-23T11:14:03;20;20;15
50956;PMS5003;55361;50.876;20.634;2022-07-23T11:21:51;20;20;15
50956;PMS5003;55361;50.876;20.634;2022-07-23T11:28:15;20;20;15
50956;PMS5003;55361;50.876;20.634;2022-07-23T11:42:08;21;20;14
50956;PMS5003;55361;50.876;20.634;2022-07-23T11:49:18;21;20;14
50956;PMS5003;55361;50.876;20.634;2022-07-23T11:56:17;21;20;14
50956;PMS5003;55361;50.876;20.634;2022-07-23T12:00:29;21;20;14
50956;PMS5003;55361;50.876;20.634;2022-07-23T12:14:15;20;19;13
50956;PMS5003;55361;50.876;20.634;2022-07-23T12:21:08;20;19;13
50956;PMS5003;55361;50.876;20.634;2022-07-23T12:28:32;20;19;13
50956;PMS5003;55361;50.876;20.634;2022-07-23T12:35:32;20;19;13
50956;PMS5003;55361;50.876;20.634;2022-07-23T12:42:13;19;17;14
50956;PMS5003;55361;50.876;20.634;2022-07-23T12:49:04;19;17;14
50956;PMS5003;55361;50.876;20.634;2022-07-23T12:56:07;19;17;14
50956;PMS5003;55361;50.876;20.634;2022-07-23T13:00:23;19;17;14
50956;PMS5003;55361;50.876;20.634;2022-07-23T13:14:03;16;14;11
50956;PMS5003;55361;50.876;20.634;2022-07-23T13:21:03;16;14;11
50956;PMS5003;55361;50.876;20.634;2022-07-23T13:28:18;16;14;11
50956;PMS5003;55361;50.876;20.634;2022-07-23T13:35:09;16;14;11
50956;PMS5003;55361;50.876;20.634;2022-07-23T13:42:05;16;15;11
50956;PMS5003;55361;50.876;20.634;2022-07-23T13:49:02;16;15;11
50956;PMS5003;55361;50.876;20.634;2022-07-23T13:56:02;16;15;11
50956;PMS5003;55361;50.876;20.634;2022-07-23T14:00:06;16;15;11
50956;PMS5003;55361;50.876;20.634;2022-07-23T14:07:02;16;15;11
50956;PMS5003;55361;50.876;20.634;2022-07-23T14:14:14;21;19;14
50956;PMS5003;55361;50.876;20.634;2022-07-23T14:21:14;21;19;14
50956;PMS5003;55361;50.876;20.634;2022-07-23T14:28:17;21;19;14
50956;PMS5003;55361;50.876;20.634;2022-07-23T14:35:06;21;19;14
50956;PMS5003;55361;50.876;20.634;2022-07-23T14:42:06;19;18;13
50956;PMS5003;55361;50.876;20.634;2022-07-23T14:49:18;19;18;13
50956;PMS5003;55361;50.876;20.634;2022-07-23T14:56:20;19;18;13
50956;PMS5003;55361;50.876;20.634;2022-07-23T15:00:23;19;18;13
50956;PMS5003;55361;50.876;20.634;2022-07-23T15:07:15;19;18;13
50956;PMS5003;55361;50.876;20.634;2022-07-23T15:14:15;21;18;13
50956;PMS5003;55361;50.876;20.634;2022-07-23T15:21:06;21;18;13
50956;PMS5003;55361;50.876;20.634;2022-07-23T15:28:02;21;18;13
50956;PMS5003;55361;50.876;20.634;2022-07-23T15:35:09;21;18;13
50956;PMS5003;55361;50.876;20.634;2022-07-23T15:42:03;25;24;16
50956;PMS5003;55361;50.876;20.634;2022-07-23T15:49:22;25;24;16
50956;PMS5003;55361;50.876;20.634;2022-07-23T15:56:19;25;24;16
50956;PMS5003;55361;50.876;20.634;2022-07-23T16:00:21;25;24;16
50956;PMS5003;55361;50.876;20.634;2022-07-23T16:14:02;16;15;11
50956;PMS5003;55361;50.876;20.634;2022-07-23T16:21:03;16;15;11
50956;PMS5003;55361;50.876;20.634;2022-07-23T16:28:19;16;15;11
50956;PMS5003;55361;50.876;20.634;2022-07-23T16:35:08;16;15;11
50956;PMS5003;55361;50.876;20.634;2022-07-23T16:42:03;12;11;8
50956;PMS5003;55361;50.876;20.634;2022-07-23T16:49:04;12;11;8
50956;PMS5003;55361;50.876;20.634;2022-07-23T16:56:20;12;11;8
50956;PMS5003;55361;50.876;20.634;2022-07-23T17:00:06;12;11;8
50956;PMS5003;55361;50.876;20.634;2022-07-23T17:07:09;12;11;8
50956;PMS5003;55361;50.876;20.634;2022-07-23T17:14:04;10;10;7
50956;PMS5003;55361;50.876;20.634;2022-07-23T17:21:13;10;10;7
50956;PMS5003;55361;50.876;20.634;2022-07-23T17:28:05;10;10;7
50956;PMS5003;55361;50.876;20.634;2022-07-23T17:35:07;10;10;7
50956;PMS5003;55361;50.876;20.634;2022-07-23T17:42:13;10;9;5
50956;PMS5003;55361;50.876;20.634;2022-07-23T17:49:19;10;9;5
50956;PMS5003;55361;50.876;20.634;2022-07-23T17:56:04;10;9;5
50956;PMS5003;55361;50.876;20.634;2022-07-23T18:00:08;10;9;5
50956;PMS5003;55361;50.876;20.634;2022-07-23T18:07:15;10;9;5
50956;PMS5003;55361;50.876;20.634;2022-07-23T18:14:12;8;8;7
50956;PMS5003;55361;50.876;20.634;2022-07-23T18:21:05;8;8;7
50956;PMS5003;55361;50.876;20.634;2022-07-23T18:28:06;8;8;7
50956;PMS5003;55361;50.876;20.634;2022-07-23T18:35:18;8;8;7
50956;PMS5003;55361;50.876;20.634;2022-07-23T18:49:04;13;13;9
50956;PMS5003;55361;50.876;20.634;2022-07-23T18:56:18;13;13;9
50956;PMS5003;55361;50.876;20.634;2022-07-23T19:00:22;13;13;9
50956;PMS5003;55361;50.876;20.634;2022-07-23T19:07:14;13;13;9
50956;PMS5003;55361;50.876;20.634;2022-07-23T19:21:15;13;11;8
50956;PMS5003;55361;50.876;20.634;2022-07-23T19:28:04;13;11;8
50956;PMS5003;55361;50.876;20.634;2022-07-23T19:35:21;13;11;8
50956;PMS5003;55361;50.876;20.634;2022-07-23T19:49:03;14;13;9
50956;PMS5003;55361;50.876;20.634;2022-07-23T19:56:16;14;13;9
50956;PMS5003;55361;50.876;20.634;2022-07-23T20:00:14;14;13;9
50956;PMS5003;55361;50.876;20.634;2022-07-23T20:07:22;14;13;9
50956;PMS5003;55361;50.876;20.634;2022-07-23T20:21:17;14;13;9
50956;PMS5003;55361;50.876;20.634;2022-07-23T20:28:17;14;13;9
50956;PMS5003;55361;50.876;20.634;2022-07-23T20:35:18;14;13;9
50956;PMS5003;55361;50.876;20.634;2022-07-23T20:49:19;15;13;8
50956;PMS5003;55361;50.876;20.634;2022-07-23T20:56:18;15;13;8
50956;PMS5003;55361;50.876;20.634;2022-07-23T21:00:18;15;13;8
50956;PMS5003;55361;50.876;20.634;2022-07-23T21:07:04;15;13;8
50956;PMS5003;55361;50.876;20.634;2022-07-23T21:21:18;13;12;9
50956;PMS5003;55361;50.876;20.634;2022-07-23T21:28:17;13;12;9
50956;PMS5003;55361;50.876;20.634;2022-07-23T21:35:02;13;12;9
50956;PMS5003;55361;50.876;20.634;2022-07-23T21:49:21;22;21;14
50956;PMS5003;55361;50.876;20.634;2022-07-23T21:56:05;22;21;14
50956;PMS5003;55361;50.876;20.634;2022-07-23T22:00:36;22;21;14
50956;PMS5003;55361;50.876;20.634;2022-07-23T22:07:17;22;21;14
50956;PMS5003;55361;50.876;20.634;2022-07-23T22:14:18;24;19;14
50956;PMS5003;55361;50.876;20.634;2022-07-23T22:21:13;24;19;14
50956;PMS5003;55361;50.876;20.634;2022-07-23T22:28:01;24;19;14
50956;PMS5003;55361;50.876;20.634;2022-07-23T22:35:21;20;19;12
50956;PMS5003;55361;50.876;20.634;2022-07-23T22:42:14;20;19;12
50956;PMS5003;55361;50.876;20.634;2022-07-23T22:49:19;20;19;12
50956;PMS5003;55361;50.876;20.634;2022-07-23T22:56:07;20;19;12
50956;PMS5003;55361;50.876;20.634;2022-07-23T23:07:04;26;22;16
50956;PMS5003;55361;50.876;20.634;2022-07-23T23:14:18;26;22;16
50956;PMS5003;55361;50.876;20.634;2022-07-23T23:21:04;26;22;16
50956;PMS5003;55361;50.876;20.634;2022-07-23T23:28:02;26;22;16
50956;PMS5003;55361;50.876;20.634;2022-07-23T23:35:09;28;25;18
50956;PMS5003;55361;50.876;20.634;2022-07-23T23:42:16;28;25;18
50956;PMS5003;55361;50.876;20.634;2022-07-23T23:49:03;28;25;18
50956;PMS5003;55361;50.876;20.634;2022-07-23T23:56:15;28;25;18
